Stations météo

réclame
Mon MeteoGroup
Hallands Vaderö, Suède (2605): Température de l'air & dewpoint: 11.11.2017 18:00:00 - 17.11.2017 18:00:00 (CET)Hallands Vaderö, Suède (2605): Vitesse du vent & gusts: 11.11.2017 18:00:00 - 17.11.2017 18:00:00 (CET)Hallands Vaderö, Suède (2605): Direction du vent: 11.11.2017 18:00:00 - 17.11.2017 18:00:00 (CET)Hallands Vaderö, Suède (2605): visibility: 11.11.2017 18:00:00 - 17.11.2017 18:00:00 (CET)Hallands Vaderö, Suède (2605): Quantités de précipitations: 11.11.2017 18:00:00 - 17.11.2017 18:00:00 (CET)
Date & Time tt [°C] td [°C] ff [km/h] ff [knt] fx [km/h] fx [knt] dd vv [km] rr [mm]
17.11.2017 18:00:00 - - - - - - - - -
17.11.2017 17:00:00 - - - - - - - - -
17.11.2017 16:00:00 8,1 3,7 37 20 50 27 WSW 13 0,0
17.11.2017 15:00:00 8,1 3,9 36 19 48 26 W 11 0,0
17.11.2017 14:00:00 8,2 3,6 35 19 50 27 W 12 0,0
17.11.2017 13:00:00 8,1 3,9 39 21 50 27 W 10 0,0
17.11.2017 12:00:00 8,2 4,4 37 20 56 30 W 10 0,0
17.11.2017 11:00:00 8,3 4,1 37 20 56 30 W 10 0,0
17.11.2017 10:00:00 7,9 3,9 44 24 55 30 W 10 0,0
17.11.2017 09:00:00 7,7 4,3 39 21 58 32 W 9 0,0
17.11.2017 08:00:00 7,3 4,1 42 23 58 32 W 10 0,0
17.11.2017 07:00:00 7,4 4,2 43 23 56 31 W 10 0,0
17.11.2017 06:00:00 7,5 4,3 41 22 54 29 W 10 0,0
17.11.2017 05:00:00 7,4 4,0 41 22 55 30 W 10 0,0
17.11.2017 04:00:00 7,3 3,5 40 22 57 31 W 10 0,0
17.11.2017 03:00:00 7,4 3,8 44 24 57 31 W 11 0,0
17.11.2017 02:00:00 7,6 3,6 44 24 55 30 W 11 0,0
17.11.2017 01:00:00 7,7 4,8 38 21 52 28 W 11 0,0
17.11.2017 00:00:00 7,9 5,7 38 20 75 41 W 13 0,2
16.11.2017 23:00:00 8,0 7,4 36 19 75 41 WNW 12 1,2
16.11.2017 22:00:00 8,9 8,9 46 25 57 31 SSW 4,1 0,1
16.11.2017 21:00:00 8,6 8,6 41 22 52 28 SSW 3,4 0,4
16.11.2017 20:00:00 8,5 8,5 40 22 53 28 SSW 3,1 0,0
16.11.2017 19:00:00 8,4 8,4 39 21 53 28 SSW 3,7 0,1
16.11.2017 18:00:00 8,4 8,4 39 21 49 26 SSW 4,8 0,2
16.11.2017 17:00:00 8,3 8,3 36 19 48 26 S 5 0,0
16.11.2017 16:00:00 8,2 8,2 36 19 45 25 S 5 0,2
16.11.2017 15:00:00 8,0 8,0 33 18 45 25 S 7 0,1
16.11.2017 14:00:00 8,0 8,0 33 18 44 24 S 12 0,0
16.11.2017 13:00:00 7,6 7,6 31 17 40 22 S 13 0,0
16.11.2017 12:00:00 6,5 6,5 28 15 40 22 SSE 7 0,0
16.11.2017 11:00:00 5,0 5,0 27 15 36 20 SSE 1,9 0,0
16.11.2017 10:00:00 5,0 5,0 21 11 30 16 SE 1,1 0,0
16.11.2017 09:00:00 4,2 4,2 18 10 27 14 SSE 0,5 0,0
16.11.2017 08:00:00 5,7 5,7 14 7 26 14 SSE 8 0,0
16.11.2017 07:00:00 6,9 6,7 18 10 26 14 SSW 11 0,0
16.11.2017 06:00:00 7,3 5,6 14 8 22 12 SW 18 0,0
16.11.2017 05:00:00 7,4 5,0 13 7 23 12 WSW 18 0,0
16.11.2017 04:00:00 7,5 5,6 19 10 23 13 WSW 17 0,0
16.11.2017 03:00:00 7,8 5,8 18 10 24 13 W 17 0,0
16.11.2017 02:00:00 7,7 5,3 19 10 25 14 W 17 0,0
16.11.2017 01:00:00 7,7 5,7 21 11 27 15 W 17 0,0
16.11.2017 00:00:00 7,8 6,1 22 12 27 15 WSW 14 0,0
15.11.2017 23:00:00 7,8 6,6 21 11 31 17 W 12 0,0
15.11.2017 22:00:00 7,9 5,7 23 12 32 17 W 13 0,0
15.11.2017 21:00:00 8,2 5,1 25 13 32 17 W 14 0,0
15.11.2017 20:00:00 8,2 6,3 25 13 36 19 W 12 0,0
15.11.2017 19:00:00 8,3 5,6 27 14 40 22 W 12 0,0
15.11.2017 18:00:00 8,4 5,3 26 14 40 22 WNW 14 0,0
15.11.2017 17:00:00 8,4 6,7 27 14 39 21 W 14 0,0
15.11.2017 16:00:00 8,4 7,0 28 15 43 23 W 12 0,0
15.11.2017 15:00:00 8,8 6,6 31 17 48 26 W 14 0,0
15.11.2017 14:00:00 9,0 6,3 35 19 48 26 W 17 0,0
15.11.2017 13:00:00 9,2 6,5 36 19 45 24 W 19 0,0
15.11.2017 12:00:00 9,1 6,4 29 16 41 22 WSW 18 0,0
15.11.2017 11:00:00 8,9 6,3 33 18 41 22 W 18 0,0
15.11.2017 10:00:00 8,7 7,0 30 16 40 21 WSW 16 0,0
15.11.2017 09:00:00 8,3 6,6 32 17 42 23 W 13 0,0
15.11.2017 08:00:00 8,3 6,9 31 17 42 23 W 13 0,0
15.11.2017 07:00:00 8,2 7,0 32 18 42 23 W 12 0,0
15.11.2017 06:00:00 8,2 7,0 32 17 42 23 W 12 0,0
15.11.2017 05:00:00 8,0 6,5 30 16 39 21 WSW 13 0,0
15.11.2017 04:00:00 8,1 6,4 29 16 40 21 W 12 0,0
15.11.2017 03:00:00 8,3 6,8 29 16 42 23 W 11 0,0
15.11.2017 02:00:00 8,2 7,1 34 19 42 23 W 11 0,0
15.11.2017 01:00:00 8,2 7,1 28 15 36 19 W 11 0,0
15.11.2017 00:00:00 8,0 6,8 22 12 33 18 W 12 0,0
14.11.2017 23:00:00 7,9 5,7 23 12 34 18 WNW 17 0,0
14.11.2017 22:00:00 7,5 6,0 16 9 42 23 WNW 19 0,0
14.11.2017 21:00:00 7,4 4,7 26 14 48 26 WNW 25 0,0
14.11.2017 20:00:00 7,9 4,5 29 16 54 29 WNW 27 0,0
14.11.2017 19:00:00 7,9 4,8 36 19 54 29 NW 21 0,0
14.11.2017 18:00:00 7,7 5,7 40 22 58 32 WNW 19 0,0
14.11.2017 17:00:00 8,4 7,8 46 25 58 32 W 8 0,0
14.11.2017 16:00:00 8,2 7,9 45 24 59 32 W 6 0,1
14.11.2017 15:00:00 8,7 7,6 41 22 59 32 WSW 7 0,0
14.11.2017 14:00:00 8,0 8,0 45 25 59 32 SW 9 0,9
14.11.2017 13:00:00 6,3 6,3 39 21 52 28 S 6 1,5
14.11.2017 12:00:00 5,9 5,8 41 22 53 29 SSW 5 1,1
14.11.2017 11:00:00 5,6 4,9 41 22 53 29 S 7 0,8
14.11.2017 10:00:00 5,9 4,4 43 23 52 28 SSW 8 1,4
14.11.2017 09:00:00 5,9 3,6 29 16 44 24 SW 8 0,3
14.11.2017 08:00:00 6,7 2,4 29 16 42 23 WSW 14 0,0
14.11.2017 07:00:00 6,9 2,2 30 16 40 22 WSW 34 0,0
14.11.2017 06:00:00 6,7 1,6 29 15 38 20 WSW 28 0,0
14.11.2017 05:00:00 6,5 1,8 27 15 36 19 WSW 40 0,0
14.11.2017 04:00:00 5,6 3,8 29 15 35 19 SSW 27 0,0
14.11.2017 03:00:00 5,3 3,0 20 11 29 16 S 49 0,0
14.11.2017 02:00:00 2,4 1,2 13 7 20 11 SE 46 0,0
14.11.2017 01:00:00 2,4 1,1 11 6 18 10 SSE 50 0,0
14.11.2017 00:00:00 2,1 0,3 14 8 18 10 SE 50 0,0
13.11.2017 23:00:00 2,3 -1,0 10 6 20 11 SE 50 0,0
13.11.2017 22:00:00 5,2 -0,2 13 7 23 12 NW 50 0,0
13.11.2017 21:00:00 5,4 -0,7 16 9 26 14 NNW 50 0,0
13.11.2017 20:00:00 5,3 -0,5 16 9 28 15 NNW 48 0,0
13.11.2017 19:00:00 5,4 0,6 18 10 29 16 NNW 50 0,0
13.11.2017 18:00:00 5,1 0,0 22 12 29 16 NNW 50 0,0
13.11.2017 17:00:00 5,0 -0,6 19 11 26 14 NNW 50 0,0
13.11.2017 16:00:00 4,6 -1,0 14 8 29 16 N 50 0,0
13.11.2017 15:00:00 5,3 -0,1 20 11 29 16 N 50 0,0
13.11.2017 14:00:00 4,9 -0,9 20 11 30 16 N 50 0,0
13.11.2017 13:00:00 4,8 -0,6 20 11 30 16 N 50 0,0
13.11.2017 12:00:00 5,0 0,4 18 10 26 14 N 50 0,0
13.11.2017 11:00:00 4,2 -0,6 21 12 34 18 N 50 0,0
13.11.2017 10:00:00 3,7 -1,7 16 9 36 19 NNE 48 0,0
13.11.2017 09:00:00 2,9 -1,6 26 14 36 19 NNE 50 0,0
13.11.2017 08:00:00 2,7 0,1 25 14 35 19 NE 50 0,0
13.11.2017 07:00:00 3,1 -0,4 27 14 35 19 NNE 50 0,0
13.11.2017 06:00:00 4,3 0,3 23 12 31 17 N 50 0,0
13.11.2017 05:00:00 5,7 0,9 20 11 25 13 N 50 0,0
13.11.2017 04:00:00 4,3 0,8 6 4 16 9 N 50 0,0
13.11.2017 03:00:00 4,0 -0,4 5 3 27 14 N 50 0,0
13.11.2017 02:00:00 4,8 0,0 15 8 28 15 N 50 0,0
13.11.2017 01:00:00 5,2 0,0 22 12 30 16 N 50 0,0
13.11.2017 00:00:00 5,2 -0,4 21 11 31 17 N 50 0,0
12.11.2017 23:00:00 6,2 0,2 24 13 31 17 N 50 0,0
12.11.2017 22:00:00 6,7 1,8 23 12 31 17 N 50 0,0
12.11.2017 21:00:00 6,9 2,0 19 10 28 15 N 50 0,0
12.11.2017 20:00:00 7,2 2,5 21 12 28 15 N 50 0,0
12.11.2017 19:00:00 7,1 2,6 18 10 25 14 NNW 50 0,0
12.11.2017 18:00:00 7,0 2,3 16 9 26 14 NW 50 0,0
12.11.2017 17:00:00 7,6 2,9 18 10 31 17 NW 39 0,0
12.11.2017 16:00:00 7,6 3,5 19 10 32 17 WNW 26 0,0
12.11.2017 15:00:00 7,5 4,1 27 15 33 18 W 19 0,0
12.11.2017 14:00:00 7,7 4,3 24 13 35 19 W 16 0,0
12.11.2017 13:00:00 7,8 4,2 30 16 37 20 W 16 0,0
12.11.2017 12:00:00 8,3 4,5 29 16 39 21 W 17 0,0
12.11.2017 11:00:00 8,1 4,7 32 18 40 22 W 15 0,0
12.11.2017 10:00:00 8,1 5,0 30 16 40 22 W 13 0,0
12.11.2017 09:00:00 7,8 4,9 33 18 40 21 WSW 16 0,0
12.11.2017 08:00:00 7,5 3,0 24 13 43 23 WNW 22 0,0
12.11.2017 07:00:00 7,1 2,8 31 17 43 23 W 19 0,0
12.11.2017 06:00:00 7,2 3,1 34 18 52 28 W 20 0,0
12.11.2017 05:00:00 7,1 4,4 32 17 52 28 W 11 0,0
12.11.2017 04:00:00 7,3 5,1 41 22 53 28 W 12 0,1
12.11.2017 03:00:00 7,2 5,2 42 23 55 30 W 12 0,2
12.11.2017 02:00:00 7,1 3,3 41 22 55 30 W 14 0,0
12.11.2017 01:00:00 7,4 3,6 45 24 58 31 W 11 0,0
12.11.2017 00:00:00 7,1 3,5 44 24 58 31 W 11 0,0
11.11.2017 23:00:00 7,1 4,1 43 23 63 34 W 11 0,0
11.11.2017 22:00:00 7,5 3,5 44 24 63 34 W 11 0,0
11.11.2017 21:00:00 7,6 2,7 43 23 61 33 WNW 13 0,0
11.11.2017 20:00:00 7,9 2,8 40 22 62 33 WNW 16 0,3
11.11.2017 19:00:00 7,7 3,4 45 24 64 35 W 12 0,0
11.11.2017 18:00:00 7,6 2,9 48 26 64 35 W 13 0,0

tt = Température de l'air
td = dewpoint
ff = Vitesse du vent
fx = gusts
dd = Direction du vent
vv = visibility
rr = Quantités de précipitations

stations d'obs. à proximité